Relevés horaires Matro (Suisse)


Relevés horaires à Matro - Dimanche 17 Janv. 2021
Heure UTC1 Température [°C] Vent [km/h] Hum. [%] Pres.4 [hPa] Visi. [Km] Nébu. [octa] Préc.5 [mm] Cond.
2m. Res. Ros. Dir.2 Vit. Moy. Raf.3
23:00 -7.9 -18.4 -14.0 NNO 44.4 -- 72.2 61 850(0.9/3h) -- -- -- --
22:00 -7.9 -18.4 -14.0 NNO 44.4 -- 72.2 61 850(1.2/3h) -- -- -- --
21:00 -7.6 -17.6 -13.5 NNO 40.7 -- 72.2 62 850(1.7/3h) -- -- -- --
20:00 -7.4 -17.7 -13.8 NNO 44.4 -- 72.2 60 850(1.9/3h) -- -- -- --
19:00 -7.2 -17.3 -13.3 NNO 42.6 -- 66.7 62 850(2.0/3h) -- -- -- --
18:00 -7.1 -17 -11.4 NNO 40.7 -- 66.7 71 850(1.6/3h) -- -- -- --
17:00 -6.8 -16.6 -12.1 NNO 40.7 -- 66.7 66 850(1.4/3h) -- -- -- --
16:00 -6.9 -16.7 -12.1 NO 40.7 -- 64.8 66 850(1.1/3h) -- -- -- --
15:00 -6.9 -15.4 -11.8 NNO 29.6 -- 59.3 68 850(0.3/3h) -- -- -- --
14:00 -6.1 -15 -12.6 NNO 35.2 -- 59.3 60 850(0.0/3h) -- -- -- --
13:00 -6.0 -13.8 -12.1 NO 25.9 -- 53.7 62 850(0.1/3h) -- -- -- --
12:00 -5.6 -13.7 -12.5 NO 29.6 -- 72.2 58 850(0.9/3h) -- -- -- --
11:00 -5.5 -15.2 -13.6 NO 44.4 -- 70.4 53 850(0.8/3h) -- -- -- --
10:00 -5.8 -14.4 -12.9 NO 33.3 -- 51.9 57 850(0.5/3h) -- -- -- --
09:00 -6.1 -15.4 -13.3 NO 38.9 -- 55.6 57 850(0.2/3h) -- -- -- --
08:00 -6.3 -15.9 -13.1 NO 40.7 -- 55.6 58 850(0.3/3h) -- -- -- --
07:00 -6.5 -15.1 -13.1 NNO 31.5 -- 50.0 59 850(-0.2/3h) -- -- -- --
06:00 -6.1 -14.6 -12.5 NNO 31.5 -- 50.0 60 850(-0.3/3h) -- -- -- --
05:00 -5.5 -13.8 -11.4 NO 31.5 -- 50.0 63 850(-0.8/3h) -- -- -- --
04:00 -5.5 -13.4 -9.4 NO 27.8 -- 48.2 74 850(-0.9/3h) -- -- -- --
03:00 -5.3 -12 -10.2 NO 20.4 -- 31.5 68 850(-1.5/3h) -- -- -- --
02:00 -5.4 -10.1 -10.1 ONO 11.1 -- 18.5 69 850(-2.0/3h) -- -- -- --
01:00 -6.3 -9.9 -10.8 O 7.4 -- 13.0 70 850(-1.9/3h) -- -- -- --
00:00 -6.4 -10 -14.2 ONO 7.4 -- 51.9 54 850(-1.6/3h) -- -- -- --

1 Coordinated Universal Time. Actuellement il est 23:00 locale et 21:00 UTC.

2 Le vent souffle depuis la direction indiquée vers la direction oposée.

3 Les rafales max. sont disponible 40 min après l'heure du relevé.

4 Pour les stations d'altitude (plus de 600m) le géopotentiel du niveau le plus proche de la pression obligatoire est indiqué.

5 Les stations disposant d'un diffuseur peuvent indiquer "trace". Cela signifie que des précipitations ont touchés le sol mais que la quantité est inférieure à 0.1 mm.

Copyright

Les données affichées sur cette page sont la propriété exclusive de Météo Suisse.

Récapitulatif de la journée
Température [°C] Vent [km/h] Ensoleillement4 [h] Precipitations totale5 [mm] Pression [Hpa]
Min1 Max.2 Moy.3 Max. Min Max.
-6.9 -5.4 0 72.2 6 h 54 min 0 850.0 850.0

1 Température minimale relevée entre 18:00 UTC la veille et 18:00 UTC le jour donné.

2 Température maximale relevée entre 06:00 UTC le jour donné et 06:00 UTC le lendemain.

3 Vent moyen de la journée basé sur les relevés horaires.

4 Ensoleillement en heures relevé entre 06:00 UTC la veille et 06:00 UTC le jour donné.

5 Précipitations totales tombées entre 06:00 UTC la jour donné et 06:00 UTC le lendemain.

Graphiques horaires